Current Conditions
Mostly Cloudy
Conditions



Rainfall
0.00 (mm) - 0.00 (in)
Pressure
1020.92 (hPa) - 30.15 (inHG)
Visibility

10.0 (km) - 6.2 (miles)
   Temperature
3  °C
37°F
2  °C
Dewpoint
93  %
 Humidity
   Wind Speed
2.7  m/s
6  mph
10  km/h
5  kts
   Wind Direction
 260°
Due West
   Airport Data
ESMX
Location Växjö Kronoberg 15 km (9.32 mi)
Metar :ESMX 190520Z AUTO 26005KT 9999 BKN011/// 03/02 Q1021
Sun 19th January 06:20 am
   Raw Metar Info
Raw METAR is the most common format in the world for the transmission of observational weather data. It is highly standardized through the International Civil Aviation Organization (ICAO), which allows it to be understood throughout most of the world.
   API Info
Data Provided by
https://www.checkwx.com/weather/ESMX
   © Info
CSS/SVG/PHP scripts were developed by weather34.com for use in the weather34 template © 2015-2020

Guide Info provided by Metar-Wikipedia